CheckWX is a tool to help pilots better visualize weather data.  It is not intended as a substitute for an official pre-flight weather briefing.

11:02:48 UTC

DAAD TAF
Bou Saada Airport
Algeria
TAF DAAD 040800Z 0409/0418 02006KT 9999 FEW026

Apr-4@
09:00 UTC

Apr-4 @ 09:00 UTC

Apr-4@
18:00 UTC

Apr-4 @ 18:00 UTC

TAF DAAD 040800Z 0409/0418 02006KT 9999 FEW026
Wind
  • 020° at 6 KTS
Cloud Levels
  • Few at 2,600' AGL